Terminal Aerodrome Forecast
Issued by NWS

Home | Current Version | Previous Version | Text Only | Print | Product List | Glossary On
Versions: 1 2 3 4 5 6 7 8 9 10 11 12 13 14 15 16 17 18 19 20 21 22 23 24 25 26 27
000
FTUS43 KMKX 271140
TAFUES
TAF
KUES 271140Z 2712/2812 26011G20KT P6SM FEW250
     FM271900 27015KT P6SM BKN045
     FM272300 28010KT P6SM -SHRA OVC030
      TEMPO 2800/2803 5SM SHRA OVC018
     FM280300 29005KT P6SM -SHRA OVC008
     FM280900 31007KT P6SM OVC008=

USA.gov is the U.S. government's official web portal to all federal, state and local government web resources and services.